createdAt,value
2023-01-21T00:00:08.661Z,29.31
2023-01-21T00:02:36.353Z,29.38
2023-01-21T00:05:04.105Z,29.41
2023-01-21T00:07:31.835Z,29.46
2023-01-21T00:09:59.562Z,29.26
2023-01-21T00:12:27.284Z,29.44
2023-01-21T00:14:55.649Z,29.22
2023-01-21T00:17:23.415Z,29.19
2023-01-21T00:19:51.336Z,29.23
2023-01-21T00:22:19.094Z,29.43
2023-01-21T00:24:46.793Z,29.55
2023-01-21T00:27:14.518Z,29.26
2023-01-21T00:29:42.264Z,29.25
2023-01-21T00:32:10.008Z,29.80
2023-01-21T00:34:37.707Z,29.31
2023-01-21T00:37:05.373Z,29.38
2023-01-21T00:39:33.048Z,29.53
2023-01-21T00:42:00.790Z,29.40
2023-01-21T00:44:28.587Z,29.31
2023-01-21T00:46:56.314Z,29.38
2023-01-21T00:49:24.041Z,29.16
2023-01-21T00:51:51.748Z,29.36
2023-01-21T00:54:19.496Z,29.24
2023-01-21T00:56:47.227Z,29.38
2023-01-21T00:59:15.084Z,29.42
2023-01-21T01:01:42.893Z,29.56
2023-01-21T01:04:12.190Z,29.60
2023-01-21T01:06:39.885Z,29.65
2023-01-21T01:09:07.940Z,29.26
2023-01-21T01:11:35.690Z,29.38
2023-01-21T01:14:03.462Z,29.47
2023-01-21T01:16:31.157Z,29.33
2023-01-21T01:18:58.875Z,29.68
2023-01-21T01:21:26.574Z,29.51
2023-01-21T01:23:54.810Z,29.48
2023-01-21T01:26:22.548Z,29.23
2023-01-21T01:28:50.330Z,29.71
2023-01-21T01:31:18.247Z,29.20
2023-01-21T01:33:46.180Z,29.33
2023-01-21T01:36:13.973Z,29.49
2023-01-21T01:38:41.697Z,29.76
2023-01-21T01:41:09.617Z,29.73
2023-01-21T01:43:37.310Z,29.35
2023-01-21T01:46:05.168Z,29.45
2023-01-21T01:48:32.923Z,29.72
2023-01-21T01:51:00.680Z,29.77
2023-01-21T01:53:28.436Z,29.58
2023-01-21T01:55:56.164Z,29.75
2023-01-21T01:58:23.876Z,29.40
2023-01-21T02:00:51.563Z,29.44
2023-01-21T02:03:37.105Z,29.74
2023-01-21T02:06:04.889Z,29.70
2023-01-21T02:08:33.314Z,29.53
2023-01-21T02:11:03.809Z,29.36
2023-01-21T02:13:31.652Z,29.50
2023-01-21T02:15:59.480Z,29.74
2023-01-21T02:18:27.257Z,29.51
2023-01-21T02:20:54.960Z,29.43
2023-01-21T02:23:25.878Z,29.34
2023-01-21T02:25:53.860Z,29.82
2023-01-21T02:28:21.605Z,29.45
2023-01-21T02:30:49.365Z,29.65
2023-01-21T02:33:17.117Z,29.87
2023-01-21T02:35:44.905Z,29.34
2023-01-21T02:38:12.612Z,29.68
2023-01-21T02:40:40.355Z,29.58
2023-01-21T02:43:08.207Z,29.56
2023-01-21T02:45:36.282Z,29.72
2023-01-21T02:48:06.108Z,29.60
2023-01-21T02:50:34.342Z,29.58
2023-01-21T02:53:02.051Z,29.59
2023-01-21T02:55:29.779Z,29.50
2023-01-21T02:57:57.575Z,29.65
2023-01-21T03:00:25.390Z,29.74
2023-01-21T03:02:53.165Z,29.59
2023-01-21T03:05:20.904Z,29.74
2023-01-21T03:07:48.642Z,29.88
2023-01-21T03:10:16.560Z,29.22
2023-01-21T03:12:44.450Z,29.67
2023-01-21T03:15:29.971Z,29.43
2023-01-21T03:17:57.681Z,29.52
2023-01-21T03:20:25.396Z,29.75
2023-01-21T03:22:53.255Z,29.75
2023-01-21T03:25:21.029Z,29.64
2023-01-21T03:27:48.720Z,29.62
2023-01-21T03:30:16.807Z,29.30
2023-01-21T03:32:44.919Z,29.90
2023-01-21T03:35:12.709Z,29.87
2023-01-21T03:37:40.466Z,29.60
2023-01-21T03:40:08.188Z,29.74
2023-01-21T03:42:35.931Z,29.69
2023-01-21T03:45:03.781Z,29.49
2023-01-21T03:47:31.863Z,29.65
2023-01-21T03:49:59.576Z,29.61
2023-01-21T03:52:27.304Z,29.61
2023-01-21T03:54:55.064Z,29.46
2023-01-21T03:57:22.727Z,29.40
2023-01-21T03:59:50.502Z,29.45
2023-01-21T04:02:20.315Z,29.19
2023-01-21T04:04:48.287Z,29.55
2023-01-21T04:07:16.058Z,29.31
2023-01-21T04:09:43.769Z,29.20
2023-01-21T04:12:11.900Z,29.07
2023-01-21T04:14:39.662Z,29.16
2023-01-21T04:17:07.474Z,29.36
2023-01-21T04:19:35.215Z,29.46
2023-01-21T04:22:02.967Z,29.69
2023-01-21T04:24:31.400Z,29.73
2023-01-21T04:27:00.352Z,29.94
2023-01-21T04:29:28.147Z,30.08
2023-01-21T04:31:55.997Z,29.79
2023-01-21T04:34:23.806Z,29.66
2023-01-21T04:36:51.625Z,30.03
2023-01-21T04:39:19.446Z,30.23
2023-01-21T04:41:47.307Z,30.14
2023-01-21T04:44:15.049Z,30.25
2023-01-21T04:46:42.865Z,29.99
2023-01-21T04:49:10.713Z,29.85
2023-01-21T04:51:38.548Z,29.70
2023-01-21T04:54:06.453Z,29.68
2023-01-21T04:56:34.185Z,29.68
2023-01-21T04:59:01.933Z,29.58
2023-01-21T05:01:29.753Z,29.62
2023-01-21T05:03:57.482Z,29.70
2023-01-21T05:06:25.263Z,29.80
2023-01-21T05:08:52.997Z,29.57
2023-01-21T05:11:20.854Z,29.43
2023-01-21T05:13:48.608Z,29.92
2023-01-21T05:16:16.463Z,29.73
2023-01-21T05:18:46.733Z,29.64
2023-01-21T05:21:14.662Z,29.98
2023-01-21T05:23:42.406Z,30.06
2023-01-21T05:26:10.129Z,29.92
2023-01-21T05:28:37.926Z,29.76
2023-01-21T05:31:05.760Z,29.86
2023-01-21T05:33:34.011Z,30.21
2023-01-21T05:36:01.745Z,30.23
2023-01-21T05:38:29.503Z,30.39
2023-01-21T05:40:57.329Z,29.93
2023-01-21T05:43:25.038Z,30.41
2023-01-21T05:45:52.885Z,30.38
2023-01-21T05:48:20.636Z,29.36
2023-01-21T05:50:48.490Z,28.08
2023-01-21T05:53:16.223Z,26.80
2023-01-21T05:55:43.992Z,26.08
2023-01-21T05:58:11.722Z,25.04
2023-01-21T06:00:41.932Z,25.04
2023-01-21T06:03:09.726Z,24.37
2023-01-21T06:05:37.460Z,24.33
2023-01-21T06:08:05.467Z,23.63
2023-01-21T06:10:33.212Z,23.10
2023-01-21T06:13:00.976Z,23.04
2023-01-21T06:15:28.726Z,17.59
2023-01-21T06:17:56.481Z,12.96
2023-01-21T06:20:24.198Z,9.79
2023-01-21T06:22:51.948Z,7.99
2023-01-21T06:25:19.714Z,7.36
2023-01-21T06:27:47.495Z,6.53
2023-01-21T06:30:15.443Z,6.15
2023-01-21T06:32:43.371Z,5.72
2023-01-21T06:35:11.096Z,5.69
2023-01-21T06:37:38.865Z,5.56
2023-01-21T06:40:07.581Z,5.46
2023-01-21T06:42:35.370Z,5.40
2023-01-21T06:45:03.116Z,5.67
2023-01-21T06:47:30.852Z,5.54
2023-01-21T06:49:58.580Z,5.71
2023-01-21T06:52:26.297Z,6.59
2023-01-21T06:54:54.205Z,6.94
2023-01-21T06:57:22.030Z,7.60
2023-01-21T06:59:49.795Z,8.74
2023-01-21T07:02:17.587Z,9.40
2023-01-21T07:04:45.628Z,10.46
2023-01-21T07:07:13.403Z,10.84
2023-01-21T07:09:41.807Z,12.36
2023-01-21T07:12:09.559Z,13.08
2023-01-21T07:14:37.648Z,13.82
2023-01-21T07:17:05.399Z,14.33
2023-01-21T07:19:33.211Z,15.42
2023-01-21T07:22:00.978Z,15.98
2023-01-21T07:24:28.754Z,16.54
2023-01-21T07:26:57.201Z,17.18
2023-01-21T07:29:24.945Z,17.91
2023-01-21T07:31:53.021Z,18.70
2023-01-21T07:34:20.850Z,19.15
2023-01-21T07:36:48.613Z,19.31
2023-01-21T07:39:16.612Z,20.09
2023-01-21T07:41:44.378Z,20.74
2023-01-21T07:44:12.160Z,21.20
2023-01-21T07:46:39.975Z,21.17
2023-01-21T07:49:07.723Z,21.29
2023-01-21T07:51:35.484Z,21.43
2023-01-21T07:54:03.316Z,21.69
2023-01-21T07:56:31.144Z,22.22
2023-01-21T07:58:58.942Z,22.55
2023-01-21T08:01:31.142Z,22.56
2023-01-21T08:03:58.977Z,22.60
2023-01-21T08:06:26.744Z,21.11
2023-01-21T08:08:54.546Z,19.41
2023-01-21T08:11:22.379Z,17.88
2023-01-21T08:13:50.137Z,15.38
2023-01-21T08:16:18.009Z,13.34
2023-01-21T08:18:45.821Z,12.42
2023-01-21T08:21:13.561Z,11.26
2023-01-21T08:23:41.287Z,9.80
2023-01-21T08:26:09.066Z,9.48
2023-01-21T08:28:36.833Z,9.28
2023-01-21T08:31:04.635Z,9.41
2023-01-21T08:33:33.129Z,10.45
2023-01-21T08:36:00.909Z,10.92
2023-01-21T08:38:28.768Z,11.38
2023-01-21T08:40:56.496Z,12.75
2023-01-21T08:43:24.262Z,13.24
2023-01-21T08:45:52.044Z,13.90
2023-01-21T08:48:20.165Z,14.56
2023-01-21T08:50:47.936Z,15.58
2023-01-21T08:53:15.669Z,16.30
2023-01-21T08:55:43.392Z,16.71
2023-01-21T08:58:11.137Z,17.52
2023-01-21T09:00:38.971Z,18.07
2023-01-21T09:03:06.779Z,19.01
2023-01-21T09:05:34.564Z,19.16
2023-01-21T09:08:02.384Z,20.08
2023-01-21T09:10:47.735Z,20.30
2023-01-21T09:13:16.434Z,20.66
2023-01-21T09:15:44.391Z,20.40
2023-01-21T09:18:12.251Z,20.89
2023-01-21T09:20:40.043Z,21.30
2023-01-21T09:23:24.288Z,21.31
2023-01-21T09:25:52.334Z,22.13
2023-01-21T09:28:23.371Z,22.17
2023-01-21T09:30:51.211Z,22.47
2023-01-21T09:33:19.142Z,22.91
2023-01-21T09:35:46.996Z,23.28
2023-01-21T09:38:15.057Z,23.67
2023-01-21T09:40:44.041Z,23.80
2023-01-21T09:43:11.845Z,24.19
2023-01-21T09:45:39.677Z,24.53
2023-01-21T09:48:11.825Z,24.08
2023-01-21T09:50:39.810Z,24.74
2023-01-21T09:53:10.451Z,24.91
2023-01-21T09:55:38.328Z,25.12
2023-01-21T09:58:10.548Z,25.48
2023-01-21T10:00:39.582Z,25.66
2023-01-21T10:03:07.452Z,25.60
2023-01-21T10:05:35.306Z,25.49
2023-01-21T10:08:03.184Z,25.82
2023-01-21T10:10:31.170Z,26.11
2023-01-21T10:12:59.017Z,26.39
2023-01-21T10:15:26.961Z,26.93
2023-01-21T10:17:57.786Z,26.45
2023-01-21T10:20:25.721Z,26.79
2023-01-21T10:22:55.918Z,27.02
2023-01-21T10:25:25.837Z,27.39
2023-01-21T10:27:53.711Z,27.50
2023-01-21T10:30:21.512Z,27.22
2023-01-21T10:32:49.361Z,27.41
2023-01-21T10:35:17.336Z,27.75
2023-01-21T10:37:45.477Z,28.10
2023-01-21T10:40:14.104Z,28.14
2023-01-21T10:42:42.133Z,27.84
2023-01-21T10:45:10.054Z,27.87
2023-01-21T10:47:37.842Z,28.22
2023-01-21T10:50:05.711Z,28.13
2023-01-21T10:52:33.609Z,28.04
2023-01-21T10:55:02.385Z,27.87
2023-01-21T10:57:31.049Z,27.64
2023-01-21T10:59:58.913Z,27.73
2023-01-21T11:02:26.862Z,27.84
2023-01-21T11:04:54.805Z,28.06
2023-01-21T11:07:22.650Z,27.81
2023-01-21T11:09:50.828Z,27.97
2023-01-21T11:12:18.847Z,27.75
2023-01-21T11:14:49.283Z,28.07
2023-01-21T11:17:17.271Z,28.04
2023-01-21T11:19:45.333Z,28.16
2023-01-21T11:22:13.250Z,28.27
2023-01-21T11:24:41.176Z,27.97
2023-01-21T11:27:09.032Z,27.95
2023-01-21T11:29:37.034Z,27.86
2023-01-21T11:32:04.886Z,28.02
2023-01-21T11:34:32.780Z,28.33
2023-01-21T11:37:00.716Z,28.04
2023-01-21T11:39:28.610Z,28.17
2023-01-21T11:41:58.752Z,27.96
2023-01-21T11:44:27.725Z,28.30
2023-01-21T11:47:00.643Z,28.08
2023-01-21T11:49:28.448Z,28.30
2023-01-21T11:51:58.556Z,28.54
2023-01-21T11:54:26.327Z,28.58
2023-01-21T11:56:54.182Z,28.58
2023-01-21T11:59:21.969Z,28.37
2023-01-21T12:01:49.853Z,29.01
2023-01-21T12:04:17.792Z,28.83
2023-01-21T12:06:47.966Z,28.94
2023-01-21T12:09:15.727Z,28.79
2023-01-21T12:11:43.502Z,28.75
2023-01-21T12:14:11.432Z,29.24
2023-01-21T12:16:39.278Z,29.22
2023-01-21T12:19:07.682Z,29.33
2023-01-21T12:21:35.595Z,29.17
2023-01-21T12:24:03.339Z,29.12
2023-01-21T12:26:31.215Z,29.30
2023-01-21T12:28:58.912Z,29.09
2023-01-21T12:31:26.635Z,28.85
2023-01-21T12:33:54.462Z,28.96
2023-01-21T12:36:22.189Z,29.00
2023-01-21T12:38:49.964Z,29.32
2023-01-21T12:41:17.680Z,29.09
2023-01-21T12:43:46.670Z,28.98
2023-01-21T12:46:14.989Z,29.25
2023-01-21T12:48:42.803Z,29.13
2023-01-21T12:51:10.605Z,24.24
2023-01-21T12:53:38.433Z,16.19
2023-01-21T12:56:08.082Z,11.88
2023-01-21T12:58:37.134Z,9.09
2023-01-21T13:01:14.015Z,7.74
2023-01-21T13:03:41.835Z,7.12
2023-01-21T13:06:09.546Z,6.59
2023-01-21T13:08:37.281Z,5.93
2023-01-21T13:11:05.069Z,6.00
2023-01-21T13:13:32.800Z,5.78
2023-01-21T13:16:00.773Z,5.73
2023-01-21T13:18:28.492Z,6.00
2023-01-21T13:20:56.255Z,6.17
2023-01-21T13:23:23.975Z,7.07
2023-01-21T13:25:53.303Z,7.73
2023-01-21T13:28:21.025Z,8.33
2023-01-21T13:30:48.914Z,9.13
2023-01-21T13:33:16.820Z,9.99
2023-01-21T13:35:44.547Z,10.92
2023-01-21T13:38:12.377Z,11.84
2023-01-21T13:40:40.133Z,12.62
2023-01-21T13:43:08.007Z,13.62
2023-01-21T13:45:35.781Z,14.21
2023-01-21T13:48:03.543Z,14.84
2023-01-21T13:50:31.320Z,15.40
2023-01-21T13:52:59.053Z,16.15
2023-01-21T13:55:26.834Z,17.12
2023-01-21T13:57:54.650Z,17.45
2023-01-21T14:00:22.371Z,18.20
2023-01-21T14:02:50.256Z,19.06
2023-01-21T14:05:18.024Z,19.21
2023-01-21T14:07:45.736Z,19.86
2023-01-21T14:10:13.779Z,20.29
2023-01-21T14:12:41.481Z,20.78
2023-01-21T14:15:09.151Z,20.94
2023-01-21T14:17:37.024Z,21.54
2023-01-21T14:20:04.764Z,22.03
2023-01-21T14:22:32.663Z,22.14
2023-01-21T14:25:01.068Z,21.93
2023-01-21T14:27:28.807Z,22.29
2023-01-21T14:29:56.556Z,22.50
2023-01-21T14:32:24.324Z,22.60
2023-01-21T14:34:52.134Z,23.13
2023-01-21T14:37:19.978Z,23.29
2023-01-21T14:39:47.668Z,23.82
2023-01-21T14:42:17.425Z,23.55
2023-01-21T14:44:45.263Z,24.31
2023-01-21T14:47:13.031Z,24.56
2023-01-21T14:49:40.781Z,24.30
2023-01-21T14:52:08.537Z,25.11
2023-01-21T14:54:36.228Z,23.60
2023-01-21T14:57:18.119Z,21.23
2023-01-21T14:59:46.717Z,16.28
2023-01-21T15:02:14.551Z,12.62
2023-01-21T15:04:42.409Z,10.23
2023-01-21T15:07:10.169Z,9.32
2023-01-21T15:09:37.914Z,9.01
2023-01-21T15:12:05.666Z,8.99
2023-01-21T15:14:33.387Z,9.00
2023-01-21T15:17:01.632Z,9.34
2023-01-21T15:19:29.538Z,9.94
2023-01-21T15:21:57.837Z,10.40
2023-01-21T15:24:26.094Z,10.97
2023-01-21T15:26:54.110Z,12.00
2023-01-21T15:29:21.905Z,12.59
2023-01-21T15:31:49.796Z,13.39
2023-01-21T15:34:17.743Z,14.04
2023-01-21T15:36:47.137Z,15.16
2023-01-21T15:39:15.280Z,15.81
2023-01-21T15:41:45.088Z,16.42
2023-01-21T15:44:14.474Z,16.60
2023-01-21T15:46:45.419Z,17.68
2023-01-21T15:49:15.202Z,18.18
2023-01-21T15:51:44.354Z,18.95
2023-01-21T15:54:14.714Z,19.36
2023-01-21T15:56:45.638Z,19.85
2023-01-21T15:59:13.534Z,20.63
2023-01-21T16:01:44.145Z,21.01
2023-01-21T16:04:13.341Z,21.78
2023-01-21T16:06:41.363Z,21.85
2023-01-21T16:09:11.824Z,21.81
2023-01-21T16:11:42.837Z,21.75
2023-01-21T16:14:14.483Z,22.00
2023-01-21T16:16:43.095Z,22.17
2023-01-21T16:19:11.033Z,22.46
2023-01-21T16:21:40.301Z,22.58
2023-01-21T16:24:08.079Z,23.17
2023-01-21T16:26:40.100Z,23.46
2023-01-21T16:29:11.101Z,23.85
2023-01-21T16:31:44.386Z,23.50
2023-01-21T16:34:12.345Z,23.63
2023-01-21T16:36:40.402Z,24.12
2023-01-21T16:39:08.354Z,24.00
2023-01-21T16:41:36.428Z,24.28
2023-01-21T16:44:06.201Z,24.24
2023-01-21T16:46:34.734Z,24.40
2023-01-21T16:49:05.001Z,24.20
2023-01-21T16:51:33.443Z,24.70
2023-01-21T16:54:03.779Z,24.47
2023-01-21T16:56:31.911Z,24.83
2023-01-21T16:59:00.235Z,21.02
2023-01-21T17:01:30.685Z,15.18
2023-01-21T17:04:01.299Z,11.52
2023-01-21T17:06:29.066Z,9.75
2023-01-21T17:08:56.836Z,9.48
2023-01-21T17:11:26.637Z,8.69
2023-01-21T17:13:54.428Z,7.87
2023-01-21T17:16:24.416Z,7.36
2023-01-21T17:18:52.434Z,6.72
2023-01-21T17:21:20.205Z,6.57
2023-01-21T17:23:48.070Z,7.04
2023-01-21T17:26:15.936Z,7.36
2023-01-21T17:28:43.726Z,8.16
2023-01-21T17:31:11.639Z,8.81
2023-01-21T17:33:41.213Z,9.40
2023-01-21T17:36:08.975Z,10.28
2023-01-21T17:38:36.820Z,10.72
2023-01-21T17:41:06.304Z,11.68
2023-01-21T17:43:36.163Z,12.69
2023-01-21T17:46:04.037Z,13.25
2023-01-21T17:48:32.251Z,14.28
2023-01-21T17:51:00.151Z,15.11
2023-01-21T17:53:28.012Z,15.68
2023-01-21T17:55:55.837Z,16.28
2023-01-21T17:58:23.640Z,17.21
2023-01-21T18:00:51.594Z,18.01
2023-01-21T18:03:19.446Z,18.63
2023-01-21T18:05:47.230Z,18.61
2023-01-21T18:08:15.122Z,19.20
2023-01-21T18:10:42.895Z,19.80
2023-01-21T18:13:10.675Z,19.42
2023-01-21T18:15:38.482Z,19.74
2023-01-21T18:18:06.241Z,20.18
2023-01-21T18:20:34.076Z,20.54
2023-01-21T18:23:02.106Z,20.94
2023-01-21T18:25:29.925Z,21.17
2023-01-21T18:27:57.639Z,21.63
2023-01-21T18:30:25.971Z,21.86
2023-01-21T18:32:53.843Z,22.23
2023-01-21T18:35:21.642Z,21.94
2023-01-21T18:37:49.617Z,22.57
2023-01-21T18:40:18.333Z,22.27
2023-01-21T18:42:46.425Z,22.41
2023-01-21T18:45:14.271Z,22.89
2023-01-21T18:47:42.202Z,23.31
2023-01-21T18:50:09.983Z,23.33
2023-01-21T18:52:37.896Z,23.60
2023-01-21T18:55:07.213Z,23.68
2023-01-21T18:57:36.013Z,23.99
2023-01-21T19:00:04.437Z,23.67
2023-01-21T19:02:32.202Z,23.70
2023-01-21T19:04:59.953Z,24.33
2023-01-21T19:07:27.860Z,20.15
2023-01-21T19:09:55.624Z,13.82
2023-01-21T19:12:24.381Z,10.79
2023-01-21T19:14:52.199Z,9.51
2023-01-21T19:17:20.121Z,8.70
2023-01-21T19:19:47.863Z,8.20
2023-01-21T19:22:15.649Z,7.60
2023-01-21T19:24:43.424Z,7.06
2023-01-21T19:27:11.246Z,6.39
2023-01-21T19:29:40.944Z,6.75
2023-01-21T19:32:08.758Z,6.51
2023-01-21T19:34:36.554Z,7.08
2023-01-21T19:37:04.368Z,7.88
2023-01-21T19:39:35.208Z,8.28
2023-01-21T19:42:08.271Z,9.06
2023-01-21T19:44:36.654Z,10.11
2023-01-21T19:47:04.898Z,10.69
2023-01-21T19:49:32.666Z,11.98
2023-01-21T19:52:00.511Z,12.66
2023-01-21T19:54:28.276Z,13.18
2023-01-21T19:56:56.047Z,14.19
2023-01-21T19:59:23.830Z,14.67
2023-01-21T20:01:52.009Z,15.88
2023-01-21T20:04:19.812Z,16.37
2023-01-21T20:06:47.594Z,17.01
2023-01-21T20:09:17.777Z,17.67
2023-01-21T20:11:45.522Z,17.89
2023-01-21T20:14:13.246Z,18.87
2023-01-21T20:16:41.008Z,19.03
2023-01-21T20:19:08.769Z,19.58
2023-01-21T20:21:49.923Z,19.79
2023-01-21T20:24:22.682Z,19.50
2023-01-21T20:26:50.440Z,20.16
2023-01-21T20:29:20.094Z,20.45
2023-01-21T20:31:47.981Z,20.74
2023-01-21T20:34:15.774Z,20.92
2023-01-21T20:36:45.457Z,21.41
2023-01-21T20:39:13.288Z,21.53
2023-01-21T20:41:41.123Z,21.86
2023-01-21T20:44:08.903Z,22.17
2023-01-21T20:46:36.633Z,22.53
2023-01-21T20:49:04.406Z,22.77
2023-01-21T20:51:32.161Z,22.55
2023-01-21T20:53:59.924Z,23.14
2023-01-21T20:56:27.628Z,23.10
2023-01-21T20:58:55.389Z,23.12
2023-01-21T21:01:23.146Z,23.44
2023-01-21T21:03:50.979Z,23.42
2023-01-21T21:06:18.744Z,23.69
2023-01-21T21:08:46.521Z,24.36
2023-01-21T21:11:14.809Z,24.50
2023-01-21T21:13:42.657Z,24.38
2023-01-21T21:16:10.436Z,24.74
2023-01-21T21:18:38.195Z,24.84
2023-01-21T21:21:05.986Z,25.50
2023-01-21T21:23:33.790Z,25.10
2023-01-21T21:26:01.562Z,25.76
2023-01-21T21:28:29.292Z,25.76
2023-01-21T21:30:57.058Z,25.87
2023-01-21T21:33:24.865Z,26.08
2023-01-21T21:35:52.686Z,26.02
2023-01-21T21:38:22.091Z,26.18
2023-01-21T21:40:52.898Z,25.95
2023-01-21T21:43:38.918Z,26.29
2023-01-21T21:46:24.325Z,26.36
2023-01-21T21:48:52.203Z,26.81
2023-01-21T21:51:20.073Z,26.61
2023-01-21T21:53:47.901Z,26.89
2023-01-21T21:56:26.520Z,26.61
2023-01-21T21:58:54.406Z,27.05
2023-01-21T22:01:22.302Z,26.63
2023-01-21T22:03:50.054Z,26.76
2023-01-21T22:06:17.760Z,26.85
2023-01-21T22:08:45.507Z,27.23
2023-01-21T22:11:13.200Z,26.95
2023-01-21T22:13:41.946Z,26.89
2023-01-21T22:16:09.703Z,27.20
2023-01-21T22:18:37.386Z,27.25
2023-01-21T22:21:05.113Z,27.14
2023-01-21T22:23:32.876Z,27.62
2023-01-21T22:26:00.631Z,27.21
2023-01-21T22:28:28.353Z,27.45
2023-01-21T22:30:56.169Z,27.82
2023-01-21T22:33:23.973Z,27.69
2023-01-21T22:35:51.747Z,27.59
2023-01-21T22:38:19.514Z,27.56
2023-01-21T22:40:47.231Z,27.81
2023-01-21T22:43:15.558Z,27.63
2023-01-21T22:45:43.284Z,28.00
2023-01-21T22:48:11.088Z,27.85
2023-01-21T22:50:38.876Z,27.89
2023-01-21T22:53:06.605Z,28.07
2023-01-21T22:55:36.386Z,27.99
2023-01-21T22:58:04.186Z,27.83
2023-01-21T23:00:37.968Z,28.19
2023-01-21T23:03:05.745Z,28.22
2023-01-21T23:05:33.559Z,28.14
2023-01-21T23:08:02.468Z,28.07
2023-01-21T23:10:30.302Z,28.11
2023-01-21T23:12:58.038Z,28.18
2023-01-21T23:15:25.737Z,28.16
2023-01-21T23:17:53.795Z,28.45
2023-01-21T23:20:23.260Z,28.66
2023-01-21T23:22:51.178Z,28.83
2023-01-21T23:25:18.866Z,28.67
2023-01-21T23:27:46.705Z,28.95
2023-01-21T23:30:14.402Z,28.70
2023-01-21T23:32:42.143Z,29.10
2023-01-21T23:35:12.697Z,29.40
2023-01-21T23:37:40.456Z,29.00
2023-01-21T23:40:08.158Z,29.13
2023-01-21T23:42:35.927Z,29.09
2023-01-21T23:45:03.664Z,28.99
2023-01-21T23:47:31.529Z,28.96
2023-01-21T23:49:59.415Z,29.15
2023-01-21T23:52:27.175Z,29.39
2023-01-21T23:54:55.059Z,29.23
2023-01-21T23:57:22.813Z,28.64
2023-01-21T23:59:51.135Z,29.22
